createdAt,value
2019-02-04T00:01:56.402Z,110.83
2019-02-04T00:04:25.234Z,115.73
2019-02-04T00:06:54.062Z,93.00
2019-02-04T00:09:23.019Z,106.23
2019-02-04T00:11:52.510Z,104.27
2019-02-04T00:14:21.121Z,112.37
2019-02-04T00:16:51.889Z,98.17
2019-02-04T00:19:23.474Z,100.43
2019-02-04T00:21:53.309Z,98.27
2019-02-04T00:24:22.026Z,111.40
2019-02-04T00:26:51.921Z,100.63
2019-02-04T00:29:21.019Z,105.67
2019-02-04T00:31:49.747Z,103.93
2019-02-04T00:34:20.424Z,97.30
2019-02-04T00:36:50.341Z,103.03
2019-02-04T00:39:20.708Z,99.40
2019-02-04T00:41:49.362Z,105.93
2019-02-04T00:44:18.038Z,88.17
2019-02-04T00:46:52.197Z,112.60
2019-02-04T00:49:19.231Z,97.60
2019-02-04T00:51:49.495Z,82.13
2019-02-04T00:54:20.186Z,81.53
2019-02-04T00:56:50.034Z,87.37
2019-02-04T00:59:19.588Z,76.53
2019-02-04T01:01:49.181Z,83.70
2019-02-04T01:04:17.761Z,81.10
2019-02-04T01:06:46.840Z,73.63
2019-02-04T01:09:15.902Z,76.27
2019-02-04T01:11:44.679Z,71.00
2019-02-04T01:14:13.327Z,76.83
2019-02-04T01:16:42.047Z,75.77
2019-02-04T01:19:10.727Z,67.97
2019-02-04T01:21:39.841Z,54.17
2019-02-04T01:24:08.665Z,62.90
2019-02-04T01:26:38.411Z,52.83
2019-02-04T01:29:07.111Z,49.20
2019-02-04T01:31:35.816Z,45.83
2019-02-04T01:34:05.693Z,41.87
2019-02-04T01:36:35.618Z,42.57
2019-02-04T01:39:07.620Z,36.77
2019-02-04T01:41:36.267Z,37.50
2019-02-04T01:44:05.277Z,34.80
2019-02-04T01:46:34.125Z,32.87
2019-02-04T01:49:03.063Z,26.47
2019-02-04T01:51:33.442Z,26.60
2019-02-04T01:54:03.002Z,23.97
2019-02-04T01:56:32.489Z,23.03
2019-02-04T01:59:01.988Z,22.37
2019-02-04T02:01:31.520Z,23.93
2019-02-04T02:04:00.984Z,21.00
2019-02-04T02:06:30.478Z,21.40
2019-02-04T02:09:00.023Z,22.00
2019-02-04T02:11:29.667Z,21.20
2019-02-04T02:13:58.991Z,18.90
2019-02-04T02:16:28.203Z,19.53
2019-02-04T02:18:58.083Z,22.30
2019-02-04T02:21:27.534Z,18.70
2019-02-04T02:23:57.058Z,22.53
2019-02-04T02:26:26.518Z,21.37
2019-02-04T02:28:55.690Z,20.70
2019-02-04T02:31:25.198Z,18.40
2019-02-04T02:33:54.642Z,19.50
2019-02-04T02:36:23.811Z,17.13
2019-02-04T02:38:53.270Z,20.30
2019-02-04T02:41:22.743Z,17.67
2019-02-04T02:43:51.895Z,20.63
2019-02-04T02:46:21.386Z,16.30
2019-02-04T02:48:50.848Z,16.67
2019-02-04T02:51:20.355Z,14.97
2019-02-04T02:53:49.887Z,17.30
2019-02-04T02:56:19.519Z,17.30
2019-02-04T02:58:48.854Z,13.33
2019-02-04T03:01:18.401Z,12.90
2019-02-04T03:03:47.865Z,15.43
2019-02-04T03:06:17.182Z,16.90
2019-02-04T03:08:46.376Z,13.63
2019-02-04T03:11:16.281Z,14.03
2019-02-04T03:13:45.536Z,11.37
2019-02-04T03:16:15.615Z,12.40
2019-02-04T03:18:44.913Z,13.60
2019-02-04T03:21:14.681Z,12.60
2019-02-04T03:23:43.966Z,12.43
2019-02-04T03:26:13.417Z,11.13
2019-02-04T03:28:42.575Z,12.40
2019-02-04T03:31:12.080Z,13.30
2019-02-04T03:33:41.560Z,11.13
2019-02-04T03:36:11.125Z,12.80
2019-02-04T03:38:41.389Z,10.90
2019-02-04T03:41:10.897Z,14.90
2019-02-04T03:43:40.367Z,11.63
2019-02-04T03:46:09.646Z,12.93
2019-02-04T03:48:39.508Z,15.30
2019-02-04T03:51:09.031Z,12.33
2019-02-04T03:53:38.578Z,12.53
2019-02-04T03:56:09.003Z,17.97
2019-02-04T03:58:39.637Z,11.77
2019-02-04T04:01:09.020Z,12.50
2019-02-04T04:03:38.527Z,12.83
2019-02-04T04:06:07.975Z,11.70
2019-02-04T04:08:37.663Z,12.70
2019-02-04T04:11:06.979Z,12.67
2019-02-04T04:13:36.488Z,16.43
2019-02-04T04:16:06.091Z,12.37
2019-02-04T04:18:37.551Z,13.63
2019-02-04T04:21:06.705Z,11.10
2019-02-04T04:23:36.174Z,12.73
2019-02-04T04:26:06.063Z,11.27
2019-02-04T04:28:35.219Z,12.70
2019-02-04T04:31:04.706Z,11.13
2019-02-04T04:33:34.198Z,10.03
2019-02-04T04:36:04.088Z,8.83
2019-02-04T04:38:33.604Z,9.87
2019-02-04T04:41:03.085Z,11.43
2019-02-04T04:43:32.247Z,10.47
2019-02-04T04:46:01.729Z,10.07
2019-02-04T04:48:31.193Z,10.70
2019-02-04T04:51:00.689Z,11.67
2019-02-04T04:53:29.881Z,12.57
2019-02-04T04:55:59.374Z,9.90
2019-02-04T04:58:28.805Z,11.60
2019-02-04T05:00:58.068Z,18.33
2019-02-04T05:03:27.406Z,19.27
2019-02-04T05:05:57.743Z,15.33
2019-02-04T05:08:27.688Z,17.03
2019-02-04T05:10:56.912Z,10.13
2019-02-04T05:13:26.284Z,12.87
2019-02-04T05:15:55.814Z,10.00
2019-02-04T05:18:25.298Z,7.73
2019-02-04T05:20:54.759Z,9.17
2019-02-04T05:23:23.951Z,10.70
2019-02-04T05:25:53.367Z,8.03
2019-02-04T05:28:22.515Z,7.00
2019-02-04T05:30:52.004Z,9.97
2019-02-04T05:33:21.847Z,9.80
2019-02-04T05:35:51.377Z,8.93
2019-02-04T05:38:21.751Z,12.13
2019-02-04T05:40:51.218Z,9.63
2019-02-04T05:43:20.731Z,6.93
2019-02-04T05:45:50.258Z,8.07
2019-02-04T05:48:19.735Z,8.23
2019-02-04T05:50:49.647Z,7.27
2019-02-04T05:53:19.191Z,9.37
2019-02-04T05:55:48.663Z,13.90
2019-02-04T05:58:18.168Z,7.80
2019-02-04T06:00:56.389Z,9.70
2019-02-04T06:03:26.997Z,8.53
2019-02-04T06:05:56.161Z,8.40
2019-02-04T06:08:25.641Z,7.87
2019-02-04T06:11:01.025Z,5.77
2019-02-04T06:13:30.437Z,9.30
2019-02-04T06:16:00.670Z,10.43
2019-02-04T06:18:29.836Z,7.50
2019-02-04T06:21:01.807Z,8.50
2019-02-04T06:23:31.267Z,8.03
2019-02-04T06:26:00.744Z,8.50
2019-02-04T06:28:30.340Z,9.40
2019-02-04T06:30:59.753Z,11.87
2019-02-04T06:33:28.974Z,11.60
2019-02-04T06:35:59.228Z,10.33
2019-02-04T06:38:28.677Z,14.00
2019-02-04T06:40:58.195Z,10.87
2019-02-04T06:43:27.382Z,14.17
2019-02-04T06:45:56.786Z,11.90
2019-02-04T06:48:26.294Z,13.30
2019-02-04T06:50:55.898Z,15.27
2019-02-04T06:53:25.311Z,13.60
2019-02-04T06:55:54.809Z,22.30
2019-02-04T06:58:24.749Z,14.60
2019-02-04T07:00:54.302Z,17.20
2019-02-04T07:03:23.744Z,12.50
2019-02-04T07:05:53.388Z,16.07
2019-02-04T07:08:22.820Z,16.70
2019-02-04T07:10:52.314Z,18.77
2019-02-04T07:13:22.210Z,20.60
2019-02-04T07:15:51.752Z,15.73
2019-02-04T07:18:21.322Z,19.33
2019-02-04T07:20:50.929Z,16.23
2019-02-04T07:23:20.647Z,16.97
2019-02-04T07:25:50.145Z,15.10
2019-02-04T07:28:20.067Z,15.60
2019-02-04T07:30:49.545Z,21.13
2019-02-04T07:33:19.045Z,19.37
2019-02-04T07:35:48.578Z,19.87
2019-02-04T07:38:18.067Z,17.27
2019-02-04T07:40:47.547Z,18.37
2019-02-04T07:43:17.514Z,18.70
2019-02-04T07:45:47.034Z,26.90
2019-02-04T07:48:16.892Z,21.80
2019-02-04T07:50:46.433Z,18.33
2019-02-04T07:53:16.099Z,22.70
2019-02-04T07:55:45.397Z,19.70
2019-02-04T07:58:14.776Z,22.13
2019-02-04T08:00:44.014Z,20.17
2019-02-04T08:03:15.054Z,24.07
2019-02-04T08:05:44.288Z,19.03
2019-02-04T08:08:13.793Z,20.80
2019-02-04T08:10:43.665Z,23.87
2019-02-04T08:13:12.966Z,21.47
2019-02-04T08:15:42.299Z,25.37
2019-02-04T08:18:11.768Z,27.03
2019-02-04T08:20:41.307Z,28.77
2019-02-04T08:23:10.855Z,31.70
2019-02-04T08:25:40.735Z,31.53
2019-02-04T08:28:10.323Z,31.43
2019-02-04T08:30:39.783Z,32.90
2019-02-04T08:33:09.219Z,35.23
2019-02-04T08:35:38.756Z,36.77
2019-02-04T08:38:08.357Z,45.43
2019-02-04T08:40:38.374Z,48.97
2019-02-04T08:43:07.708Z,44.67
2019-02-04T08:45:39.279Z,50.17
2019-02-04T08:48:08.779Z,52.20
2019-02-04T08:50:38.394Z,46.73
2019-02-04T08:53:07.714Z,48.37
2019-02-04T08:55:38.714Z,41.77
2019-02-04T08:58:08.835Z,39.33
2019-02-04T09:00:38.346Z,46.93
2019-02-04T09:03:07.816Z,46.53
2019-02-04T09:05:37.426Z,46.40
2019-02-04T09:08:06.875Z,45.57
2019-02-04T09:10:36.787Z,40.63
2019-02-04T09:13:06.815Z,41.20
2019-02-04T09:15:36.194Z,45.07
2019-02-04T09:18:06.307Z,38.03
2019-02-04T09:20:35.586Z,37.80
2019-02-04T09:23:06.231Z,39.03
2019-02-04T09:25:36.338Z,43.13
2019-02-04T09:28:05.858Z,37.33
2019-02-04T09:30:35.211Z,38.53
2019-02-04T09:33:04.505Z,30.73
2019-02-04T09:35:33.851Z,29.27
2019-02-04T09:38:04.582Z,28.50
2019-02-04T09:40:37.368Z,31.23
2019-02-04T09:43:07.720Z,34.50
2019-02-04T09:45:37.617Z,32.07
2019-02-04T09:48:10.304Z,25.37
2019-02-04T09:50:45.586Z,31.23
2019-02-04T09:53:15.623Z,30.17
2019-02-04T09:55:45.020Z,26.73
2019-02-04T09:58:14.702Z,30.60
2019-02-04T10:00:44.088Z,28.93
2019-02-04T10:03:15.663Z,26.93
2019-02-04T10:05:46.414Z,26.60
2019-02-04T10:08:16.713Z,30.93
2019-02-04T10:10:46.159Z,27.77
2019-02-04T10:13:15.865Z,29.23
2019-02-04T10:15:46.268Z,27.43
2019-02-04T10:18:16.158Z,33.67
2019-02-04T10:20:46.688Z,24.80
2019-02-04T10:23:16.870Z,26.93
2019-02-04T10:25:47.270Z,27.60
2019-02-04T10:28:17.190Z,30.17
2019-02-04T10:30:46.799Z,33.80
2019-02-04T10:33:18.122Z,31.23
2019-02-04T10:35:50.716Z,34.33
2019-02-04T10:38:21.070Z,34.73
2019-02-04T10:40:55.947Z,37.17
2019-02-04T10:43:25.340Z,35.70
2019-02-04T10:45:54.789Z,37.10
2019-02-04T10:48:25.475Z,33.80
2019-02-04T10:50:55.134Z,36.63
2019-02-04T10:53:24.662Z,34.80
2019-02-04T10:55:54.057Z,34.73
2019-02-04T10:58:23.730Z,32.83
2019-02-04T11:00:53.133Z,32.97
2019-02-04T11:03:22.594Z,32.47
2019-02-04T11:05:52.213Z,38.13
2019-02-04T11:08:21.593Z,33.33
2019-02-04T11:10:51.178Z,33.70
2019-02-04T11:13:20.446Z,32.70
2019-02-04T11:15:49.800Z,29.70
2019-02-04T11:18:20.049Z,34.83
2019-02-04T11:20:57.678Z,35.77
2019-02-04T11:23:20.285Z,34.67
2019-02-04T11:25:49.677Z,35.97
2019-02-04T11:28:19.588Z,34.73
2019-02-04T11:30:52.024Z,36.27
2019-02-04T11:33:21.630Z,38.60
2019-02-04T11:35:51.500Z,37.73
2019-02-04T11:38:20.748Z,43.93
2019-02-04T11:40:50.125Z,36.50
2019-02-04T11:43:19.526Z,38.87
2019-02-04T11:45:48.897Z,38.47
2019-02-04T11:48:18.968Z,36.07
2019-02-04T11:50:48.393Z,34.00
2019-02-04T11:53:17.687Z,36.73
2019-02-04T11:55:47.700Z,35.37
2019-02-04T11:58:17.206Z,36.53
2019-02-04T12:00:46.554Z,41.43
2019-02-04T12:03:16.290Z,39.53
2019-02-04T12:05:46.861Z,38.07
2019-02-04T12:08:16.466Z,41.57
2019-02-04T12:10:50.208Z,40.70
2019-02-04T12:13:19.927Z,36.83
2019-02-04T12:15:50.474Z,38.87
2019-02-04T12:18:19.655Z,38.73
2019-02-04T12:20:49.117Z,32.83
2019-02-04T12:23:19.162Z,38.67
2019-02-04T12:25:48.517Z,37.93
2019-02-04T12:28:18.123Z,37.80
2019-02-04T12:30:47.540Z,37.03
2019-02-04T12:33:17.129Z,31.97
2019-02-04T12:35:46.655Z,34.33
2019-02-04T12:38:16.937Z,32.50
2019-02-04T12:40:46.489Z,35.60
2019-02-04T12:43:16.253Z,30.20
2019-02-04T12:45:46.116Z,27.10
2019-02-04T12:48:15.623Z,28.83
2019-02-04T12:50:44.987Z,29.37
2019-02-04T12:53:17.130Z,29.67
2019-02-04T12:55:46.669Z,33.00
2019-02-04T12:58:16.112Z,34.00
2019-02-04T13:00:45.356Z,35.10
2019-02-04T13:03:15.458Z,25.07
2019-02-04T13:05:48.002Z,30.93
2019-02-04T13:08:17.847Z,29.70
2019-02-04T13:10:47.390Z,25.43
2019-02-04T13:13:18.979Z,31.67
2019-02-04T13:15:48.532Z,27.70
2019-02-04T13:18:17.791Z,28.20
2019-02-04T13:20:47.189Z,29.00
2019-02-04T13:23:16.947Z,24.73
2019-02-04T13:25:46.552Z,30.73
2019-02-04T13:28:16.815Z,31.10
2019-02-04T13:30:46.372Z,26.57
2019-02-04T13:33:15.943Z,25.27
2019-02-04T13:35:45.521Z,27.47
2019-02-04T13:38:15.090Z,24.13
2019-02-04T13:40:45.195Z,24.57
2019-02-04T13:43:14.775Z,26.07
2019-02-04T13:45:44.252Z,25.17
2019-02-04T13:48:14.162Z,27.20
2019-02-04T13:50:43.677Z,26.63
2019-02-04T13:53:13.224Z,27.83
2019-02-04T13:55:42.714Z,29.03
2019-02-04T13:58:12.275Z,28.53
2019-02-04T14:00:41.848Z,28.17
2019-02-04T14:03:11.250Z,27.50
2019-02-04T14:05:40.823Z,26.80
2019-02-04T14:08:11.790Z,28.17
2019-02-04T14:10:45.976Z,27.00
2019-02-04T14:13:15.827Z,27.33
2019-02-04T14:15:45.750Z,27.73
2019-02-04T14:18:15.085Z,27.73
2019-02-04T14:20:44.377Z,36.83
2019-02-04T14:23:13.741Z,31.97
2019-02-04T14:25:43.001Z,35.37
2019-02-04T14:28:12.431Z,33.30
2019-02-04T14:30:42.712Z,28.43
2019-02-04T14:33:12.202Z,33.43
2019-02-04T14:35:41.852Z,30.80
2019-02-04T14:38:11.475Z,36.13
2019-02-04T14:40:40.738Z,36.47
2019-02-04T14:43:13.499Z,35.10
2019-02-04T14:45:48.812Z,35.37
2019-02-04T14:48:32.845Z,34.13
2019-02-04T14:51:10.955Z,32.83
2019-02-04T14:54:04.188Z,35.63
2019-02-04T14:56:54.725Z,35.83
2019-02-04T14:59:28.322Z,35.67
2019-02-04T15:02:04.971Z,36.67
2019-02-04T15:04:40.126Z,36.53
2019-02-04T15:07:24.455Z,33.07
2019-02-04T15:10:18.986Z,35.27
2019-02-04T15:13:00.756Z,33.50
2019-02-04T15:15:34.395Z,36.20
2019-02-04T15:18:14.142Z,34.47
2019-02-04T15:20:47.329Z,36.00
2019-02-04T15:23:22.939Z,35.50
2019-02-04T15:25:56.573Z,38.40
2019-02-04T15:28:28.907Z,33.13
2019-02-04T15:31:12.258Z,39.17
2019-02-04T15:34:01.933Z,37.27
2019-02-04T15:36:34.731Z,32.40
2019-02-04T15:39:23.194Z,35.60
2019-02-04T15:41:55.476Z,36.60
2019-02-04T15:44:45.572Z,36.30
2019-02-04T15:47:26.643Z,34.57
2019-02-04T15:50:19.819Z,34.03
2019-02-04T15:52:49.372Z,37.33
2019-02-04T15:55:21.073Z,36.37
2019-02-04T15:57:50.386Z,37.17
2019-02-04T16:00:19.715Z,36.53
2019-02-04T16:02:49.015Z,40.00
2019-02-04T16:05:18.655Z,39.40
2019-02-04T16:07:48.063Z,41.07
2019-02-04T16:10:18.326Z,45.77
2019-02-04T16:12:48.126Z,42.50
2019-02-04T16:15:18.005Z,36.83
2019-02-04T16:17:47.350Z,35.07
2019-02-04T16:20:19.679Z,46.07
2019-02-04T16:22:57.999Z,40.43
2019-02-04T16:25:21.101Z,38.23
2019-02-04T16:27:50.738Z,33.90
2019-02-04T16:30:22.627Z,34.37
2019-02-04T16:32:53.117Z,35.70
2019-02-04T16:35:29.705Z,34.70
2019-02-04T16:38:00.239Z,31.60
2019-02-04T16:40:29.791Z,35.53
2019-02-04T16:42:59.284Z,30.87
2019-02-04T16:45:29.184Z,32.30
2019-02-04T16:47:58.621Z,34.47
2019-02-04T16:50:29.338Z,35.33
2019-02-04T16:53:09.717Z,31.97
2019-02-04T16:55:30.060Z,36.87
2019-02-04T16:57:59.674Z,33.67
2019-02-04T17:00:32.431Z,31.90
2019-02-04T17:03:01.707Z,37.67
2019-02-04T17:05:35.830Z,35.67
2019-02-04T17:08:06.114Z,43.00
2019-02-04T17:10:35.550Z,46.37
2019-02-04T17:13:07.201Z,39.57
2019-02-04T17:15:36.750Z,34.47
2019-02-04T17:18:06.191Z,32.73
2019-02-04T17:20:38.575Z,31.27
2019-02-04T17:23:08.017Z,32.50
2019-02-04T17:25:37.510Z,34.13
2019-02-04T17:28:07.598Z,30.70
2019-02-04T17:30:37.050Z,27.53
2019-02-04T17:33:06.865Z,28.70
2019-02-04T17:35:36.679Z,30.77
2019-02-04T17:38:06.252Z,30.43
2019-02-04T17:40:35.935Z,27.23
2019-02-04T17:43:08.774Z,30.87
2019-02-04T17:45:39.596Z,25.43
2019-02-04T17:48:09.184Z,27.90
2019-02-04T17:50:38.744Z,19.63
2019-02-04T17:53:08.301Z,22.13
2019-02-04T17:55:38.337Z,23.70
2019-02-04T17:58:08.553Z,26.20
2019-02-04T18:00:39.997Z,21.53
2019-02-04T18:03:09.870Z,23.67
2019-02-04T18:05:39.615Z,22.73
2019-02-04T18:08:09.013Z,20.03
2019-02-04T18:10:39.306Z,28.10
2019-02-04T18:13:09.277Z,28.70
2019-02-04T18:15:38.832Z,20.97
2019-02-04T18:18:10.474Z,24.40
2019-02-04T18:20:41.888Z,21.80
2019-02-04T18:23:12.103Z,28.90
2019-02-04T18:25:41.609Z,21.03
2019-02-04T18:28:11.301Z,20.10
2019-02-04T18:30:40.890Z,20.47
2019-02-04T18:33:12.252Z,20.67
2019-02-04T18:35:50.728Z,21.33
2019-02-04T18:38:27.986Z,21.67
2019-02-04T18:40:58.079Z,23.37
2019-02-04T18:43:27.818Z,20.67
2019-02-04T18:45:59.772Z,21.83
2019-02-04T18:48:28.493Z,32.40
2019-02-04T18:50:58.025Z,41.30
2019-02-04T18:53:27.539Z,85.70
2019-02-04T18:55:57.981Z,58.67
2019-02-04T18:58:28.191Z,102.00
2019-02-04T19:00:57.624Z,105.43
2019-02-04T19:03:27.162Z,67.43
2019-02-04T19:05:56.758Z,62.37
2019-02-04T19:08:26.125Z,52.27
2019-02-04T19:10:55.678Z,43.93
2019-02-04T19:13:35.791Z,37.13
2019-02-04T19:15:57.101Z,37.60
2019-02-04T19:18:27.483Z,38.70
2019-02-04T19:20:56.997Z,44.30
2019-02-04T19:23:27.012Z,73.10
2019-02-04T19:25:56.781Z,75.77
2019-02-04T19:28:26.278Z,97.60
2019-02-04T19:30:58.864Z,92.10
2019-02-04T19:33:28.267Z,57.67
2019-02-04T19:35:57.803Z,46.23
2019-02-04T19:38:27.159Z,42.60
2019-02-04T19:40:57.196Z,34.53
2019-02-04T19:43:29.204Z,36.83
2019-02-04T19:45:58.559Z,54.60
2019-02-04T19:48:28.163Z,48.33
2019-02-04T19:50:57.566Z,50.73
2019-02-04T19:53:27.870Z,39.33
2019-02-04T19:55:57.877Z,31.90
2019-02-04T19:58:27.307Z,41.47
2019-02-04T20:00:56.541Z,61.17
2019-02-04T20:03:26.775Z,45.53
2019-02-04T20:05:56.319Z,63.40
2019-02-04T20:08:25.860Z,52.27
2019-02-04T20:10:55.423Z,38.47
2019-02-04T20:13:24.835Z,27.63
2019-02-04T20:15:55.221Z,25.57
2019-02-04T20:18:25.455Z,25.23
2019-02-04T20:20:54.893Z,23.60
2019-02-04T20:23:24.204Z,27.30
2019-02-04T20:25:53.676Z,24.83
2019-02-04T20:28:25.113Z,19.93
2019-02-04T20:30:55.386Z,22.77
2019-02-04T20:33:24.927Z,25.43
2019-02-04T20:35:54.451Z,25.83
2019-02-04T20:38:27.211Z,22.93
2019-02-04T20:40:55.554Z,27.07
2019-02-04T20:43:24.948Z,20.77
2019-02-04T20:45:55.269Z,23.53
2019-02-04T20:48:24.481Z,21.73
2019-02-04T20:50:53.905Z,18.83
2019-02-04T20:53:23.791Z,25.20
2019-02-04T20:55:53.393Z,32.13
2019-02-04T20:58:22.799Z,35.90
2019-02-04T21:00:52.290Z,35.43
2019-02-04T21:03:22.743Z,35.57
2019-02-04T21:05:52.208Z,29.20
2019-02-04T21:08:22.124Z,35.77
2019-02-04T21:10:51.662Z,32.10
2019-02-04T21:13:21.130Z,34.70
2019-02-04T21:15:50.622Z,34.93
2019-02-04T21:18:20.135Z,40.70
2019-02-04T21:20:49.601Z,36.90
2019-02-04T21:23:19.502Z,32.20
2019-02-04T21:25:49.534Z,37.17
2019-02-04T21:28:18.916Z,46.30
2019-02-04T21:30:48.421Z,47.23
2019-02-04T21:33:17.971Z,51.90
2019-02-04T21:35:47.422Z,51.67
2019-02-04T21:38:16.709Z,53.73
2019-02-04T21:40:48.115Z,45.67
2019-02-04T21:43:17.603Z,50.60
2019-02-04T21:45:47.235Z,49.63
2019-02-04T21:48:20.814Z,52.50
2019-02-04T21:50:50.999Z,56.90
2019-02-04T21:53:20.166Z,50.60
2019-02-04T21:55:49.655Z,51.90
2019-02-04T21:58:19.355Z,47.10
2019-02-04T22:00:49.948Z,51.80
2019-02-04T22:03:20.224Z,38.60
2019-02-04T22:05:49.689Z,36.63
2019-02-04T22:08:18.866Z,39.00
2019-02-04T22:10:49.160Z,40.80
2019-02-04T22:13:18.613Z,32.33
2019-02-04T22:15:48.528Z,35.23
2019-02-04T22:18:17.762Z,37.17
2019-02-04T22:20:47.619Z,33.07
2019-02-04T22:23:17.117Z,30.53
2019-02-04T22:25:47.004Z,34.47
2019-02-04T22:28:16.535Z,34.10
2019-02-04T22:30:46.392Z,32.97
2019-02-04T22:33:15.966Z,39.60
2019-02-04T22:35:46.627Z,38.83
2019-02-04T22:38:16.941Z,31.63
2019-02-04T22:40:46.151Z,35.67
2019-02-04T22:43:15.628Z,38.33
2019-02-04T22:45:45.943Z,40.67
2019-02-04T22:48:15.678Z,40.03
2019-02-04T22:50:45.312Z,38.77
2019-02-04T22:53:14.929Z,45.77
2019-02-04T22:55:47.648Z,55.87
2019-02-04T22:58:17.092Z,45.47
2019-02-04T23:01:19.430Z,46.67
2019-02-04T23:03:49.031Z,38.23
2019-02-04T23:06:18.365Z,39.00
2019-02-04T23:08:47.924Z,38.17
2019-02-04T23:11:17.791Z,39.30
2019-02-04T23:13:47.599Z,44.50
2019-02-04T23:16:18.934Z,47.17
2019-02-04T23:18:48.419Z,49.87
2019-02-04T23:21:18.748Z,47.47
2019-02-04T23:23:49.120Z,47.90
2019-02-04T23:26:18.359Z,50.97
2019-02-04T23:28:51.328Z,52.87
2019-02-04T23:31:20.835Z,49.00
2019-02-04T23:33:50.298Z,50.70
2019-02-04T23:36:20.627Z,48.73
2019-02-04T23:38:51.402Z,54.23
2019-02-04T23:41:20.853Z,53.67
2019-02-04T23:43:50.370Z,49.53
2019-02-04T23:46:21.697Z,54.83
2019-02-04T23:48:51.083Z,51.60
2019-02-04T23:51:21.342Z,60.93
2019-02-04T23:53:51.222Z,46.33
2019-02-04T23:56:20.914Z,48.70
2019-02-04T23:58:50.345Z,46.30
